Accueil
METAR-TAF:

METAR-TAF

Aéroports :

Aéroport du Gloucestershire

Gloucester, Angleterre

latitude: 51-54N, longitude: 002-10W, altitude: 29 m

Observation

Le bulletin a été fait il y a 8 heures et 6 minutes, à 18:20 UTC
Vent 11 kt de sud-ouest
Température 20°C
Humidité 78%
Pression 1019 hPa
Visibilité 10 km ou plus
Quelques nuages à une hauteur de 1800 ft
Nuages épars à une hauteur de 2200 ft

METAR: EGBJ 181820Z 23011KT 9999 FEW018 SCT022 20/16 Q1019

Heure: 03:26 (02:26 UTC)

Prévision

Le bulletin a été fait il y a 12 heures et 31 minutes, à 13:55 UTC
Prévision valable du 18 à 15 UTC au 18 à 19 UTC
Vent 12 kt de ouest/sud-ouest
Visibilité 10 km ou plus
Nuages épars à une hauteur de 2500 ft
Temporairement
du 18 à 17 UTC au 18 à 19 UTC
Nuages fragmentés à une hauteur de 1200 ft

TAF: EGBJ 181355Z 1815/1819 24012KT 9999 SCT025 TEMPO 1817/1819 BKN012

Observations et prévisions météorologiques de plus de 4000 aéroports (messages METAR et TAF).

Les stations disponibles sont représentées par des disques jaunes et rouges sur la carte.

Passer la souris dessus pour voir le nom de la station.

Cliquer dessus pour voir les observations et prévisions météorologiques.

Pour changer de carte: cliquez sur les boutons verts avec une croix noire pour zoomer, sur le bouton vert avec un tiret pour effectuer un zoom arrière, ou sur les flèches vertes pour les cartes adjacentes.


METAR-TAF: